sensor_id;sensor_type;location;lat;lon;timestamp;pressure;altitude;pressure_sealevel;temperature;humidity
26657;BME280;14279;50.010;8.260;2023-07-13T00:01:03;100340.06;;;21.91;41.82
26657;BME280;14279;50.010;8.260;2023-07-13T00:03:28;100341.31;;;21.87;41.99
26657;BME280;14279;50.010;8.260;2023-07-13T00:06:00;100348.00;;;21.91;42.01
26657;BME280;14279;50.010;8.260;2023-07-13T00:08:26;100346.09;;;21.84;41.78
26657;BME280;14279;50.010;8.260;2023-07-13T00:10:52;100339.94;;;21.83;42.04
26657;BME280;14279;50.010;8.260;2023-07-13T00:13:19;100341.84;;;21.91;42.14
26657;BME280;14279;50.010;8.260;2023-07-13T00:15:44;100346.75;;;21.96;41.81
26657;BME280;14279;50.010;8.260;2023-07-13T00:18:10;100347.22;;;22.09;41.88
26657;BME280;14279;50.010;8.260;2023-07-13T00:20:35;100344.13;;;21.86;42.11
26657;BME280;14279;50.010;8.260;2023-07-13T00:23:00;100349.78;;;22.01;42.06
26657;BME280;14279;50.010;8.260;2023-07-13T00:25:26;100355.25;;;21.89;42.24
26657;BME280;14279;50.010;8.260;2023-07-13T00:27:54;100352.50;;;21.81;42.39
26657;BME280;14279;50.010;8.260;2023-07-13T00:30:19;100356.44;;;21.77;42.52
26657;BME280;14279;50.010;8.260;2023-07-13T00:32:45;100356.81;;;21.82;42.43
26657;BME280;14279;50.010;8.260;2023-07-13T00:35:12;100349.06;;;21.71;42.94
26657;BME280;14279;50.010;8.260;2023-07-13T00:40:04;100352.69;;;21.70;43.06
26657;BME280;14279;50.010;8.260;2023-07-13T00:42:30;100358.78;;;21.60;43.63
26657;BME280;14279;50.010;8.260;2023-07-13T00:47:38;100363.41;;;21.58;43.67
26657;BME280;14279;50.010;8.260;2023-07-13T00:50:07;100369.53;;;21.59;43.82
26657;BME280;14279;50.010;8.260;2023-07-13T00:52:35;100363.69;;;21.55;43.84
26657;BME280;14279;50.010;8.260;2023-07-13T00:55:01;100381.41;;;21.45;44.11
26657;BME280;14279;50.010;8.260;2023-07-13T00:57:27;100377.25;;;21.42;44.31
26657;BME280;14279;50.010;8.260;2023-07-13T00:59:55;100368.59;;;21.50;43.77
26657;BME280;14279;50.010;8.260;2023-07-13T01:02:22;100373.28;;;21.56;44.00
26657;BME280;14279;50.010;8.260;2023-07-13T01:04:49;100367.88;;;21.58;44.11
26657;BME280;14279;50.010;8.260;2023-07-13T01:07:14;100376.81;;;21.37;44.34
26657;BME280;14279;50.010;8.260;2023-07-13T01:09:40;100379.31;;;21.39;44.79
26657;BME280;14279;50.010;8.260;2023-07-13T01:12:06;100374.28;;;21.45;44.60
26657;BME280;14279;50.010;8.260;2023-07-13T01:14:32;100377.94;;;21.35;44.71
26657;BME280;14279;50.010;8.260;2023-07-13T01:16:58;100376.69;;;21.29;44.75
26657;BME280;14279;50.010;8.260;2023-07-13T01:19:35;100376.56;;;21.30;44.79
26657;BME280;14279;50.010;8.260;2023-07-13T01:22:02;100379.50;;;21.17;45.08
26657;BME280;14279;50.010;8.260;2023-07-13T01:24:28;100373.50;;;21.25;45.03
26657;BME280;14279;50.010;8.260;2023-07-13T01:26:53;100372.63;;;21.44;44.67
26657;BME280;14279;50.010;8.260;2023-07-13T01:29:18;100367.50;;;21.23;45.21
26657;BME280;14279;50.010;8.260;2023-07-13T01:31:43;100369.72;;;21.18;45.48
26657;BME280;14279;50.010;8.260;2023-07-13T01:34:10;100371.53;;;21.08;45.82
26657;BME280;14279;50.010;8.260;2023-07-13T01:36:35;100380.75;;;20.94;46.10
26657;BME280;14279;50.010;8.260;2023-07-13T01:39:01;100379.03;;;20.83;46.43
26657;BME280;14279;50.010;8.260;2023-07-13T01:41:26;100379.03;;;20.83;46.50
26657;BME280;14279;50.010;8.260;2023-07-13T01:43:51;100381.56;;;20.84;46.46
26657;BME280;14279;50.010;8.260;2023-07-13T01:46:17;100375.72;;;20.91;46.65
26657;BME280;14279;50.010;8.260;2023-07-13T01:48:42;100372.91;;;20.92;46.47
26657;BME280;14279;50.010;8.260;2023-07-13T01:51:07;100383.50;;;20.82;46.50
26657;BME280;14279;50.010;8.260;2023-07-13T01:53:32;100385.59;;;20.79;47.28
26657;BME280;14279;50.010;8.260;2023-07-13T01:55:58;100382.09;;;20.78;47.51
26657;BME280;14279;50.010;8.260;2023-07-13T01:58:23;100383.66;;;20.81;47.01
26657;BME280;14279;50.010;8.260;2023-07-13T02:00:49;100383.06;;;20.87;47.41
26657;BME280;14279;50.010;8.260;2023-07-13T02:03:15;100381.41;;;20.86;46.62
26657;BME280;14279;50.010;8.260;2023-07-13T02:05:43;100386.13;;;20.82;46.84
26657;BME280;14279;50.010;8.260;2023-07-13T02:08:08;100388.34;;;20.77;47.20
26657;BME280;14279;50.010;8.260;2023-07-13T02:10:33;100394.03;;;20.72;47.33
26657;BME280;14279;50.010;8.260;2023-07-13T02:12:59;100387.06;;;20.71;47.02
26657;BME280;14279;50.010;8.260;2023-07-13T02:15:24;100388.97;;;20.50;47.29
26657;BME280;14279;50.010;8.260;2023-07-13T02:17:49;100395.81;;;20.62;47.25
26657;BME280;14279;50.010;8.260;2023-07-13T02:20:15;100390.66;;;20.51;47.32
26657;BME280;14279;50.010;8.260;2023-07-13T02:22:40;100397.59;;;20.42;47.58
26657;BME280;14279;50.010;8.260;2023-07-13T02:25:05;100390.69;;;20.30;47.54
26657;BME280;14279;50.010;8.260;2023-07-13T02:27:31;100396.94;;;20.19;48.02
26657;BME280;14279;50.010;8.260;2023-07-13T02:29:56;100398.69;;;20.08;48.39
26657;BME280;14279;50.010;8.260;2023-07-13T02:32:22;100400.84;;;19.93;48.54
26657;BME280;14279;50.010;8.260;2023-07-13T02:34:47;100404.72;;;19.89;48.57
26657;BME280;14279;50.010;8.260;2023-07-13T02:37:13;100392.00;;;19.83;48.72
26657;BME280;14279;50.010;8.260;2023-07-13T02:39:38;100398.50;;;19.79;48.46
26657;BME280;14279;50.010;8.260;2023-07-13T02:42:03;100399.22;;;19.81;48.58
26657;BME280;14279;50.010;8.260;2023-07-13T02:44:29;100390.56;;;19.79;48.00
26657;BME280;14279;50.010;8.260;2023-07-13T02:46:54;100392.00;;;19.83;48.24
26657;BME280;14279;50.010;8.260;2023-07-13T02:49:19;100399.72;;;19.75;47.53
26657;BME280;14279;50.010;8.260;2023-07-13T02:51:45;100401.34;;;19.66;47.85
26657;BME280;14279;50.010;8.260;2023-07-13T02:54:10;100398.28;;;19.61;47.88
26657;BME280;14279;50.010;8.260;2023-07-13T02:56:37;100398.88;;;19.53;48.04
26657;BME280;14279;50.010;8.260;2023-07-13T02:59:03;100397.34;;;19.50;47.62
26657;BME280;14279;50.010;8.260;2023-07-13T03:01:29;100402.41;;;19.42;47.52
26657;BME280;14279;50.010;8.260;2023-07-13T03:03:54;100395.22;;;19.44;47.30
26657;BME280;14279;50.010;8.260;2023-07-13T03:06:20;100402.13;;;19.57;47.64
26657;BME280;14279;50.010;8.260;2023-07-13T03:08:46;100411.75;;;19.46;47.69
26657;BME280;14279;50.010;8.260;2023-07-13T03:11:16;100404.16;;;19.53;47.45
26657;BME280;14279;50.010;8.260;2023-07-13T03:13:42;100406.81;;;19.53;47.54
26657;BME280;14279;50.010;8.260;2023-07-13T03:16:09;100414.38;;;19.58;47.36
26657;BME280;14279;50.010;8.260;2023-07-13T03:18:35;100417.91;;;19.47;47.86
26657;BME280;14279;50.010;8.260;2023-07-13T03:21:00;100426.63;;;19.47;47.87
26657;BME280;14279;50.010;8.260;2023-07-13T03:23:26;100423.94;;;19.37;47.85
26657;BME280;14279;50.010;8.260;2023-07-13T03:26:02;100420.75;;;19.22;48.32
26657;BME280;14279;50.010;8.260;2023-07-13T03:28:28;100414.34;;;19.36;48.11
26657;BME280;14279;50.010;8.260;2023-07-13T03:31:04;100430.16;;;19.36;48.13
26657;BME280;14279;50.010;8.260;2023-07-13T03:33:31;100438.09;;;19.36;48.26
26657;BME280;14279;50.010;8.260;2023-07-13T03:35:57;100440.97;;;19.33;48.29
26657;BME280;14279;50.010;8.260;2023-07-13T03:38:22;100436.16;;;19.38;48.16
26657;BME280;14279;50.010;8.260;2023-07-13T03:40:48;100443.06;;;19.51;48.26
26657;BME280;14279;50.010;8.260;2023-07-13T03:43:14;100447.72;;;19.59;47.86
26657;BME280;14279;50.010;8.260;2023-07-13T03:45:39;100447.25;;;19.53;47.75
26657;BME280;14279;50.010;8.260;2023-07-13T03:48:04;100442.88;;;19.43;47.96
26657;BME280;14279;50.010;8.260;2023-07-13T03:50:30;100450.97;;;19.51;48.21
26657;BME280;14279;50.010;8.260;2023-07-13T03:52:57;100443.13;;;19.40;48.17
26657;BME280;14279;50.010;8.260;2023-07-13T03:55:22;100445.03;;;19.37;48.34
26657;BME280;14279;50.010;8.260;2023-07-13T03:57:54;100454.63;;;19.38;48.62
26657;BME280;14279;50.010;8.260;2023-07-13T04:00:22;100456.00;;;19.21;48.84
26657;BME280;14279;50.010;8.260;2023-07-13T04:02:47;100455.19;;;19.21;48.92
26657;BME280;14279;50.010;8.260;2023-07-13T04:05:14;100453.13;;;19.25;49.05
26657;BME280;14279;50.010;8.260;2023-07-13T04:07:40;100460.00;;;19.16;48.94
26657;BME280;14279;50.010;8.260;2023-07-13T04:10:05;100453.41;;;19.10;49.20
26657;BME280;14279;50.010;8.260;2023-07-13T04:12:31;100455.28;;;19.31;48.63
26657;BME280;14279;50.010;8.260;2023-07-13T04:14:56;100455.47;;;19.39;48.66
26657;BME280;14279;50.010;8.260;2023-07-13T04:17:21;100453.03;;;19.47;48.61
26657;BME280;14279;50.010;8.260;2023-07-13T04:19:46;100455.22;;;19.42;48.85
26657;BME280;14279;50.010;8.260;2023-07-13T04:22:12;100449.44;;;19.48;48.35
26657;BME280;14279;50.010;8.260;2023-07-13T04:24:37;100459.28;;;19.46;48.70
26657;BME280;14279;50.010;8.260;2023-07-13T04:27:03;100451.56;;;19.55;48.71
26657;BME280;14279;50.010;8.260;2023-07-13T04:29:28;100468.31;;;19.44;49.42
26657;BME280;14279;50.010;8.260;2023-07-13T04:31:53;100461.81;;;19.48;49.07
26657;BME280;14279;50.010;8.260;2023-07-13T04:34:19;100463.09;;;19.53;49.11
26657;BME280;14279;50.010;8.260;2023-07-13T04:36:44;100468.97;;;19.25;49.79
26657;BME280;14279;50.010;8.260;2023-07-13T04:39:09;100458.53;;;19.23;49.38
26657;BME280;14279;50.010;8.260;2023-07-13T04:41:34;100458.00;;;19.41;49.39
26657;BME280;14279;50.010;8.260;2023-07-13T04:44:00;100455.75;;;19.36;49.22
26657;BME280;14279;50.010;8.260;2023-07-13T04:46:25;100459.53;;;19.43;49.41
26657;BME280;14279;50.010;8.260;2023-07-13T04:48:50;100459.88;;;19.50;48.88
26657;BME280;14279;50.010;8.260;2023-07-13T04:51:18;100458.72;;;19.64;48.38
26657;BME280;14279;50.010;8.260;2023-07-13T04:53:43;100458.50;;;19.34;48.89
26657;BME280;14279;50.010;8.260;2023-07-13T04:56:08;100461.88;;;19.58;48.72
26657;BME280;14279;50.010;8.260;2023-07-13T04:58:34;100462.88;;;19.45;48.52
26657;BME280;14279;50.010;8.260;2023-07-13T05:01:01;100469.63;;;19.38;49.10
26657;BME280;14279;50.010;8.260;2023-07-13T05:03:27;100461.59;;;19.40;49.09
26657;BME280;14279;50.010;8.260;2023-07-13T05:05:59;100470.94;;;19.65;48.65
26657;BME280;14279;50.010;8.260;2023-07-13T05:08:25;100470.31;;;19.51;48.46
26657;BME280;14279;50.010;8.260;2023-07-13T05:10:51;100461.09;;;19.46;49.24
26657;BME280;14279;50.010;8.260;2023-07-13T05:13:17;100466.78;;;19.62;48.60
26657;BME280;14279;50.010;8.260;2023-07-13T05:15:42;100472.13;;;19.72;48.36
26657;BME280;14279;50.010;8.260;2023-07-13T05:18:07;100468.69;;;19.93;48.48
26657;BME280;14279;50.010;8.260;2023-07-13T05:20:33;100481.84;;;20.04;48.27
26657;BME280;14279;50.010;8.260;2023-07-13T05:22:58;100478.50;;;20.02;48.35
26657;BME280;14279;50.010;8.260;2023-07-13T05:25:23;100480.47;;;20.10;47.64
26657;BME280;14279;50.010;8.260;2023-07-13T05:27:48;100479.75;;;20.29;47.83
26657;BME280;14279;50.010;8.260;2023-07-13T05:30:14;100486.63;;;19.78;47.79
26657;BME280;14279;50.010;8.260;2023-07-13T05:32:39;100487.25;;;19.70;47.72
26657;BME280;14279;50.010;8.260;2023-07-13T05:35:05;100482.44;;;19.75;47.14
26657;BME280;14279;50.010;8.260;2023-07-13T05:37:30;100486.94;;;19.63;47.98
26657;BME280;14279;50.010;8.260;2023-07-13T05:39:56;100479.25;;;19.93;47.02
26657;BME280;14279;50.010;8.260;2023-07-13T05:42:21;100492.38;;;19.83;47.08
26657;BME280;14279;50.010;8.260;2023-07-13T05:44:46;100490.50;;;19.74;47.17
26657;BME280;14279;50.010;8.260;2023-07-13T05:47:11;100489.50;;;19.75;46.63
26657;BME280;14279;50.010;8.260;2023-07-13T05:49:39;100496.53;;;19.64;47.07
26657;BME280;14279;50.010;8.260;2023-07-13T05:52:04;100487.06;;;19.62;46.99
26657;BME280;14279;50.010;8.260;2023-07-13T05:54:30;100495.31;;;19.68;46.93
26657;BME280;14279;50.010;8.260;2023-07-13T05:56:55;100483.91;;;19.68;47.42
26657;BME280;14279;50.010;8.260;2023-07-13T05:59:20;100494.03;;;19.84;47.42
26657;BME280;14279;50.010;8.260;2023-07-13T06:01:45;100500.13;;;19.96;47.23
26657;BME280;14279;50.010;8.260;2023-07-13T06:04:11;100494.69;;;19.76;47.38
26657;BME280;14279;50.010;8.260;2023-07-13T06:06:37;100491.69;;;20.02;47.16
26657;BME280;14279;50.010;8.260;2023-07-13T06:09:02;100498.06;;;20.00;47.24
26657;BME280;14279;50.010;8.260;2023-07-13T06:11:27;100502.53;;;19.66;48.22
26657;BME280;14279;50.010;8.260;2023-07-13T06:13:55;100498.78;;;20.02;48.08
26657;BME280;14279;50.010;8.260;2023-07-13T06:16:21;100493.69;;;20.10;47.45
26657;BME280;14279;50.010;8.260;2023-07-13T06:18:46;100512.94;;;20.01;47.88
26657;BME280;14279;50.010;8.260;2023-07-13T06:21:14;100508.53;;;20.01;47.98
26657;BME280;14279;50.010;8.260;2023-07-13T06:23:41;100508.06;;;20.17;47.41
26657;BME280;14279;50.010;8.260;2023-07-13T06:26:07;100512.03;;;20.33;46.86
26657;BME280;14279;50.010;8.260;2023-07-13T06:28:34;100512.28;;;20.30;47.58
26657;BME280;14279;50.010;8.260;2023-07-13T06:31:00;100515.69;;;20.41;47.48
26657;BME280;14279;50.010;8.260;2023-07-13T06:33:26;100512.88;;;20.64;46.82
26657;BME280;14279;50.010;8.260;2023-07-13T06:35:51;100514.91;;;20.51;46.82
26657;BME280;14279;50.010;8.260;2023-07-13T06:38:16;100504.16;;;20.42;46.39
26657;BME280;14279;50.010;8.260;2023-07-13T06:40:42;100514.75;;;20.73;45.91
26657;BME280;14279;50.010;8.260;2023-07-13T06:43:07;100516.50;;;20.63;46.02
26657;BME280;14279;50.010;8.260;2023-07-13T06:45:39;100522.06;;;20.91;45.71
26657;BME280;14279;50.010;8.260;2023-07-13T06:48:05;100506.25;;;20.70;45.96
26657;BME280;14279;50.010;8.260;2023-07-13T06:50:30;100518.44;;;20.61;45.92
26657;BME280;14279;50.010;8.260;2023-07-13T06:52:56;100527.63;;;20.57;46.16
26657;BME280;14279;50.010;8.260;2023-07-13T06:55:21;100519.72;;;20.67;46.31
26657;BME280;14279;50.010;8.260;2023-07-13T06:57:46;100513.28;;;20.81;46.13
26657;BME280;14279;50.010;8.260;2023-07-13T07:00:12;100515.72;;;20.72;46.04
26657;BME280;14279;50.010;8.260;2023-07-13T07:02:37;100517.75;;;21.00;45.80
26657;BME280;14279;50.010;8.260;2023-07-13T07:05:05;100515.13;;;21.10;45.72
26657;BME280;14279;50.010;8.260;2023-07-13T07:07:33;100515.91;;;21.51;45.05
26657;BME280;14279;50.010;8.260;2023-07-13T07:09:59;100532.97;;;21.08;45.33
26657;BME280;14279;50.010;8.260;2023-07-13T07:12:24;100530.06;;;21.11;45.24
26657;BME280;14279;50.010;8.260;2023-07-13T07:14:52;100532.75;;;21.30;45.07
26657;BME280;14279;50.010;8.260;2023-07-13T07:21:12;100536.72;;;21.85;44.13
26657;BME280;14279;50.010;8.260;2023-07-13T07:23:37;100542.56;;;21.79;43.59
26657;BME280;14279;50.010;8.260;2023-07-13T07:26:03;100531.53;;;22.13;43.77
26657;BME280;14279;50.010;8.260;2023-07-13T07:28:28;100539.63;;;21.92;43.60
26657;BME280;14279;50.010;8.260;2023-07-13T07:30:55;100541.00;;;22.06;43.05
26657;BME280;14279;50.010;8.260;2023-07-13T07:33:21;100532.22;;;22.05;43.08
26657;BME280;14279;50.010;8.260;2023-07-13T07:35:47;100532.94;;;21.68;43.04
26657;BME280;14279;50.010;8.260;2023-07-13T07:38:12;100539.63;;;21.62;42.77
26657;BME280;14279;50.010;8.260;2023-07-13T07:40:39;100560.28;;;21.79;42.93
26657;BME280;14279;50.010;8.260;2023-07-13T07:43:06;100552.06;;;21.62;43.28
26657;BME280;14279;50.010;8.260;2023-07-13T07:45:31;100544.13;;;21.62;42.75
26657;BME280;14279;50.010;8.260;2023-07-13T07:48:16;100543.56;;;21.78;42.53
26657;BME280;14279;50.010;8.260;2023-07-13T07:51:09;100551.38;;;21.80;42.24
26657;BME280;14279;50.010;8.260;2023-07-13T07:53:55;100537.97;;;21.81;42.22
26657;BME280;14279;50.010;8.260;2023-07-13T07:56:22;100541.84;;;22.16;42.19
26657;BME280;14279;50.010;8.260;2023-07-13T07:59:09;100538.56;;;22.42;41.20
26657;BME280;14279;50.010;8.260;2023-07-13T08:01:35;100544.50;;;22.16;40.71
26657;BME280;14279;50.010;8.260;2023-07-13T08:04:30;100554.41;;;22.14;40.80
26657;BME280;14279;50.010;8.260;2023-07-13T08:06:56;100540.47;;;21.92;41.32
26657;BME280;14279;50.010;8.260;2023-07-13T08:09:22;100536.25;;;22.19;39.61
26657;BME280;14279;50.010;8.260;2023-07-13T08:11:47;100546.88;;;22.10;40.30
26657;BME280;14279;50.010;8.260;2023-07-13T08:14:13;100546.50;;;21.85;40.64
26657;BME280;14279;50.010;8.260;2023-07-13T08:16:39;100554.44;;;21.95;39.88
26657;BME280;14279;50.010;8.260;2023-07-13T08:19:04;100542.97;;;22.14;39.75
26657;BME280;14279;50.010;8.260;2023-07-13T08:21:30;100547.00;;;22.08;40.17
26657;BME280;14279;50.010;8.260;2023-07-13T08:23:55;100536.03;;;22.60;38.73
26657;BME280;14279;50.010;8.260;2023-07-13T08:26:20;100537.03;;;22.59;39.61
26657;BME280;14279;50.010;8.260;2023-07-13T08:28:49;100551.59;;;22.45;39.54
26657;BME280;14279;50.010;8.260;2023-07-13T08:31:15;100552.84;;;22.31;39.71
26657;BME280;14279;50.010;8.260;2023-07-13T08:33:40;100538.66;;;22.13;40.65
26657;BME280;14279;50.010;8.260;2023-07-13T08:36:06;100548.31;;;22.61;40.17
26657;BME280;14279;50.010;8.260;2023-07-13T08:38:31;100545.03;;;22.49;39.90
26657;BME280;14279;50.010;8.260;2023-07-13T08:40:57;100545.03;;;23.05;37.97
26657;BME280;14279;50.010;8.260;2023-07-13T08:43:28;100536.41;;;22.65;38.10
26657;BME280;14279;50.010;8.260;2023-07-13T08:45:58;100530.66;;;22.80;37.34
26657;BME280;14279;50.010;8.260;2023-07-13T08:48:28;100529.91;;;23.16;37.00
26657;BME280;14279;50.010;8.260;2023-07-13T08:51:04;100532.31;;;22.81;35.88
26657;BME280;14279;50.010;8.260;2023-07-13T08:53:42;100546.63;;;22.70;37.06
26657;BME280;14279;50.010;8.260;2023-07-13T08:56:18;100549.06;;;22.81;37.65
26657;BME280;14279;50.010;8.260;2023-07-13T08:58:47;100527.38;;;23.14;36.28
26657;BME280;14279;50.010;8.260;2023-07-13T09:01:16;100541.06;;;22.91;37.70
26657;BME280;14279;50.010;8.260;2023-07-13T09:03:56;100535.16;;;22.97;35.53
26657;BME280;14279;50.010;8.260;2023-07-13T09:06:29;100537.97;;;22.68;36.26
26657;BME280;14279;50.010;8.260;2023-07-13T09:09:05;100536.31;;;23.13;36.20
26657;BME280;14279;50.010;8.260;2023-07-13T09:11:38;100542.13;;;23.54;35.29
26657;BME280;14279;50.010;8.260;2023-07-13T09:14:33;100536.41;;;23.31;35.92
26657;BME280;14279;50.010;8.260;2023-07-13T09:17:03;100537.56;;;23.19;36.12
26657;BME280;14279;50.010;8.260;2023-07-13T09:19:32;100535.88;;;23.27;35.68
26657;BME280;14279;50.010;8.260;2023-07-13T09:22:02;100531.09;;;23.67;35.44
26657;BME280;14279;50.010;8.260;2023-07-13T09:24:53;100543.84;;;23.64;35.36
26657;BME280;14279;50.010;8.260;2023-07-13T09:27:23;100535.34;;;23.60;35.42
26657;BME280;14279;50.010;8.260;2023-07-13T09:30:20;100518.75;;;22.84;37.03
26657;BME280;14279;50.010;8.260;2023-07-13T09:32:50;100536.38;;;23.03;36.46
26657;BME280;14279;50.010;8.260;2023-07-13T09:35:20;100523.06;;;23.23;35.85
26657;BME280;14279;50.010;8.260;2023-07-13T09:37:46;100532.47;;;23.07;36.11
26657;BME280;14279;50.010;8.260;2023-07-13T09:40:20;100538.97;;;22.95;36.10
26657;BME280;14279;50.010;8.260;2023-07-13T09:42:48;100521.53;;;23.56;35.69
26657;BME280;14279;50.010;8.260;2023-07-13T09:45:26;100538.53;;;23.64;35.93
26657;BME280;14279;50.010;8.260;2023-07-13T09:47:59;100529.03;;;23.43;35.92
26657;BME280;14279;50.010;8.260;2023-07-13T09:50:24;100526.41;;;23.79;35.36
26657;BME280;14279;50.010;8.260;2023-07-13T09:52:50;100533.47;;;23.70;35.11
26657;BME280;14279;50.010;8.260;2023-07-13T09:55:35;100525.09;;;23.83;34.69
26657;BME280;14279;50.010;8.260;2023-07-13T09:58:10;100524.47;;;23.90;35.07
26657;BME280;14279;50.010;8.260;2023-07-13T10:00:37;100528.50;;;24.12;34.89
26657;BME280;14279;50.010;8.260;2023-07-13T10:03:17;100533.44;;;24.33;34.29
26657;BME280;14279;50.010;8.260;2023-07-13T10:05:44;100524.78;;;24.05;34.92
26657;BME280;14279;50.010;8.260;2023-07-13T10:10:44;100523.31;;;24.10;34.75
26657;BME280;14279;50.010;8.260;2023-07-13T10:15:54;100527.34;;;23.96;35.06
26657;BME280;14279;50.010;8.260;2023-07-13T10:18:22;100512.47;;;23.85;34.57
26657;BME280;14279;50.010;8.260;2023-07-13T10:20:49;100512.91;;;24.17;34.65
26657;BME280;14279;50.010;8.260;2023-07-13T10:23:21;100522.56;;;24.18;33.94
26657;BME280;14279;50.010;8.260;2023-07-13T10:25:51;100524.56;;;23.98;34.85
26657;BME280;14279;50.010;8.260;2023-07-13T10:28:27;100511.81;;;24.28;34.76
26657;BME280;14279;50.010;8.260;2023-07-13T10:30:56;100503.03;;;24.70;33.36
26657;BME280;14279;50.010;8.260;2023-07-13T10:33:23;100506.53;;;24.10;33.17
26657;BME280;14279;50.010;8.260;2023-07-13T10:35:51;100525.53;;;24.15;33.66
26657;BME280;14279;50.010;8.260;2023-07-13T10:38:22;100524.78;;;24.05;33.58
26657;BME280;14279;50.010;8.260;2023-07-13T10:40:57;100513.91;;;24.16;33.41
26657;BME280;14279;50.010;8.260;2023-07-13T10:43:28;100517.88;;;24.46;33.37
26657;BME280;14279;50.010;8.260;2023-07-13T10:45:59;100511.94;;;24.26;32.87
26657;BME280;14279;50.010;8.260;2023-07-13T10:48:25;100502.56;;;24.40;32.92
26657;BME280;14279;50.010;8.260;2023-07-13T10:50:52;100502.63;;;24.57;31.79
26657;BME280;14279;50.010;8.260;2023-07-13T10:53:28;100500.75;;;24.49;32.56
26657;BME280;14279;50.010;8.260;2023-07-13T10:55:59;100540.28;;;24.36;33.20
26657;BME280;14279;50.010;8.260;2023-07-13T10:58:39;100507.09;;;24.83;32.66
26657;BME280;14279;50.010;8.260;2023-07-13T11:01:15;100520.13;;;24.94;32.01
26657;BME280;14279;50.010;8.260;2023-07-13T11:03:55;100531.31;;;25.06;31.40
26657;BME280;14279;50.010;8.260;2023-07-13T11:08:55;100512.50;;;24.99;31.24
26657;BME280;14279;50.010;8.260;2023-07-13T11:13:57;100508.47;;;24.95;30.88
26657;BME280;14279;50.010;8.260;2023-07-13T11:21:26;100499.06;;;25.34;31.43
26657;BME280;14279;50.010;8.260;2023-07-13T11:24:01;100506.28;;;25.66;31.15
26657;BME280;14279;50.010;8.260;2023-07-13T11:26:50;100505.19;;;25.01;31.53
26657;BME280;14279;50.010;8.260;2023-07-13T11:29:33;100505.94;;;25.94;30.66
26657;BME280;14279;50.010;8.260;2023-07-13T11:32:21;100518.13;;;25.04;31.39
26657;BME280;14279;50.010;8.260;2023-07-13T11:34:47;100506.19;;;24.66;31.81
26657;BME280;14279;50.010;8.260;2023-07-13T11:37:15;100519.09;;;24.26;32.14
26657;BME280;14279;50.010;8.260;2023-07-13T11:39:43;100510.91;;;24.45;32.26
26657;BME280;14279;50.010;8.260;2023-07-13T11:42:12;100530.31;;;24.38;31.98
26657;BME280;14279;50.010;8.260;2023-07-13T11:44:43;100515.19;;;24.12;32.55
26657;BME280;14279;50.010;8.260;2023-07-13T11:47:17;100513.41;;;24.21;32.49
26657;BME280;14279;50.010;8.260;2023-07-13T11:49:52;100519.78;;;24.28;32.32
26657;BME280;14279;50.010;8.260;2023-07-13T11:52:31;100527.31;;;24.67;31.98
26657;BME280;14279;50.010;8.260;2023-07-13T11:55:00;100513.06;;;24.50;32.04
26657;BME280;14279;50.010;8.260;2023-07-13T11:57:29;100508.47;;;24.60;31.92
26657;BME280;14279;50.010;8.260;2023-07-13T11:59:57;100511.34;;;25.10;31.61
26657;BME280;14279;50.010;8.260;2023-07-13T12:02:36;100515.59;;;25.54;31.37
26657;BME280;14279;50.010;8.260;2023-07-13T12:05:04;100506.78;;;25.54;31.27
26657;BME280;14279;50.010;8.260;2023-07-13T12:07:32;100522.75;;;24.86;31.69
26657;BME280;14279;50.010;8.260;2023-07-13T12:12:33;100524.13;;;24.29;32.79
26657;BME280;14279;50.010;8.260;2023-07-13T12:14:58;100516.22;;;24.45;32.85
26657;BME280;14279;50.010;8.260;2023-07-13T12:17:25;100529.94;;;24.33;33.29
26657;BME280;14279;50.010;8.260;2023-07-13T12:19:52;100516.91;;;24.48;33.39
26657;BME280;14279;50.010;8.260;2023-07-13T12:22:19;100513.03;;;24.15;32.52
26657;BME280;14279;50.010;8.260;2023-07-13T12:24:46;100515.66;;;25.03;31.98
26657;BME280;14279;50.010;8.260;2023-07-13T12:27:23;100519.63;;;25.66;31.20
26657;BME280;14279;50.010;8.260;2023-07-13T12:29:59;100514.94;;;25.52;31.16
26657;BME280;14279;50.010;8.260;2023-07-13T12:32:26;100528.31;;;25.09;32.14
26657;BME280;14279;50.010;8.260;2023-07-13T12:34:56;100526.16;;;25.13;32.05
26657;BME280;14279;50.010;8.260;2023-07-13T12:37:23;100541.16;;;25.14;32.39
26657;BME280;14279;50.010;8.260;2023-07-13T12:39:49;100544.00;;;25.12;32.33
26657;BME280;14279;50.010;8.260;2023-07-13T12:42:19;100532.75;;;24.92;32.30
26657;BME280;14279;50.010;8.260;2023-07-13T12:44:53;100529.41;;;24.90;32.06
26657;BME280;14279;50.010;8.260;2023-07-13T12:47:20;100522.91;;;25.52;31.08
26657;BME280;14279;50.010;8.260;2023-07-13T12:49:59;100524.94;;;26.00;30.11
26657;BME280;14279;50.010;8.260;2023-07-13T12:52:31;100534.78;;;25.83;30.68
26657;BME280;14279;50.010;8.260;2023-07-13T12:55:12;100533.25;;;25.55;31.08
26657;BME280;14279;50.010;8.260;2023-07-13T12:57:48;100535.44;;;25.76;30.88
26657;BME280;14279;50.010;8.260;2023-07-13T13:00:28;100539.78;;;25.77;31.45
26657;BME280;14279;50.010;8.260;2023-07-13T13:02:56;100532.94;;;25.83;31.31
26657;BME280;14279;50.010;8.260;2023-07-13T13:05:22;100534.59;;;25.59;31.82
26657;BME280;14279;50.010;8.260;2023-07-13T13:07:51;100532.44;;;26.04;31.23
26657;BME280;14279;50.010;8.260;2023-07-13T13:10:17;100533.78;;;25.84;31.43
26657;BME280;14279;50.010;8.260;2023-07-13T13:12:52;100533.69;;;25.42;31.16
26657;BME280;14279;50.010;8.260;2023-07-13T13:15:17;100537.25;;;25.43;31.40
26657;BME280;14279;50.010;8.260;2023-07-13T13:17:42;100550.84;;;25.23;31.68
26657;BME280;14279;50.010;8.260;2023-07-13T13:20:28;100545.34;;;25.41;31.80
26657;BME280;14279;50.010;8.260;2023-07-13T13:22:54;100533.94;;;25.49;31.51